createdAt,value
2022-08-26T00:02:12.584Z,20.65
2022-08-26T00:04:39.034Z,20.61
2022-08-26T00:07:05.647Z,20.53
2022-08-26T00:09:32.942Z,20.53
2022-08-26T00:12:03.952Z,20.45
2022-08-26T00:14:31.668Z,20.42
2022-08-26T00:16:58.123Z,20.38
2022-08-26T00:19:24.631Z,20.48
2022-08-26T00:21:51.368Z,20.39
2022-08-26T00:24:18.675Z,20.36
2022-08-26T00:26:45.070Z,20.33
2022-08-26T00:29:12.186Z,20.38
2022-08-26T00:31:39.026Z,20.43
2022-08-26T00:34:06.586Z,20.30
2022-08-26T00:36:35.879Z,20.31
2022-08-26T00:39:02.221Z,20.28
2022-08-26T00:41:28.832Z,20.25
2022-08-26T00:43:55.154Z,20.24
2022-08-26T00:46:23.436Z,20.19
2022-08-26T00:48:52.110Z,20.19
2022-08-26T00:51:19.640Z,20.11
2022-08-26T00:53:48.679Z,20.04
2022-08-26T00:56:20.145Z,20.06
2022-08-26T00:58:48.007Z,20.06
2022-08-26T01:01:14.754Z,20.05
2022-08-26T01:03:41.869Z,20.07
2022-08-26T01:06:11.476Z,20.04
2022-08-26T01:08:39.753Z,19.94
2022-08-26T01:11:06.465Z,19.89
2022-08-26T01:13:36.257Z,19.87
2022-08-26T01:16:04.075Z,19.86
2022-08-26T01:18:31.524Z,19.85
2022-08-26T01:20:57.943Z,19.82
2022-08-26T01:23:28.493Z,19.82
2022-08-26T01:25:56.606Z,19.92
2022-08-26T01:28:25.248Z,19.84
2022-08-26T01:30:53.363Z,19.83
2022-08-26T01:33:23.585Z,19.80
2022-08-26T01:35:50.238Z,19.79
2022-08-26T01:38:18.433Z,19.77
2022-08-26T01:40:46.159Z,19.79
2022-08-26T01:43:16.725Z,19.88
2022-08-26T01:45:43.839Z,19.84
2022-08-26T01:48:14.067Z,19.78
2022-08-26T01:50:42.874Z,19.67
2022-08-26T01:53:11.357Z,19.68
2022-08-26T01:55:39.089Z,19.62
2022-08-26T01:58:09.756Z,19.68
2022-08-26T02:00:36.906Z,19.56
2022-08-26T02:03:16.531Z,19.60
2022-08-26T02:06:04.535Z,19.49
2022-08-26T02:08:39.664Z,19.52
2022-08-26T02:11:06.737Z,19.53
2022-08-26T02:13:34.781Z,19.49
2022-08-26T02:16:02.331Z,19.44
2022-08-26T02:18:29.839Z,19.41
2022-08-26T02:20:56.466Z,19.41
2022-08-26T02:23:24.036Z,19.40
2022-08-26T02:25:54.602Z,19.37
2022-08-26T02:28:20.990Z,19.44
2022-08-26T02:30:55.383Z,19.37
2022-08-26T02:33:22.031Z,19.35
2022-08-26T02:35:48.764Z,19.34
2022-08-26T02:38:15.051Z,19.21
2022-08-26T02:40:42.236Z,19.41
2022-08-26T02:43:08.834Z,19.44
2022-08-26T02:45:35.670Z,19.54
2022-08-26T02:48:06.795Z,19.42
2022-08-26T02:50:34.513Z,19.16
2022-08-26T02:53:01.380Z,19.11
2022-08-26T02:55:28.921Z,19.12
2022-08-26T02:57:55.773Z,19.12
2022-08-26T03:00:22.533Z,19.12
2022-08-26T03:02:50.340Z,19.14
2022-08-26T03:05:17.868Z,19.17
2022-08-26T03:07:44.179Z,19.27
2022-08-26T03:10:13.145Z,19.19
2022-08-26T03:12:41.136Z,19.13
2022-08-26T03:15:17.375Z,19.14
2022-08-26T03:17:44.681Z,19.19
2022-08-26T03:20:11.244Z,19.20
2022-08-26T03:22:40.171Z,19.20
2022-08-26T03:25:08.720Z,19.20
2022-08-26T03:27:35.210Z,19.18
2022-08-26T03:30:20.953Z,19.20
2022-08-26T03:32:47.316Z,19.20
2022-08-26T03:35:14.128Z,19.22
2022-08-26T03:37:40.511Z,19.19
2022-08-26T03:40:09.016Z,19.17
2022-08-26T03:42:36.600Z,19.16
2022-08-26T03:45:03.356Z,19.18
2022-08-26T03:47:30.618Z,19.17
2022-08-26T03:49:57.479Z,19.14
2022-08-26T03:52:24.159Z,19.14
2022-08-26T03:54:51.194Z,19.15
2022-08-26T03:57:17.571Z,19.14
2022-08-26T03:59:45.810Z,19.11
2022-08-26T04:02:12.208Z,19.08
2022-08-26T04:04:38.581Z,19.10
2022-08-26T04:07:05.106Z,19.13
2022-08-26T04:09:31.739Z,19.12
2022-08-26T04:12:02.076Z,19.13
2022-08-26T04:14:29.845Z,19.13
2022-08-26T04:16:56.458Z,19.16
2022-08-26T04:19:24.761Z,19.18
2022-08-26T04:21:52.999Z,19.18
2022-08-26T04:24:20.953Z,19.19
2022-08-26T04:26:48.417Z,19.20
2022-08-26T04:29:16.791Z,19.19
2022-08-26T04:31:43.326Z,19.23
2022-08-26T04:34:11.051Z,19.27
2022-08-26T04:36:38.056Z,19.36
2022-08-26T04:39:05.206Z,19.42
2022-08-26T04:41:32.134Z,19.41
2022-08-26T04:43:58.517Z,19.44
2022-08-26T04:46:25.607Z,19.52
2022-08-26T04:48:53.120Z,19.46
2022-08-26T04:51:20.307Z,19.62
2022-08-26T04:53:46.637Z,19.70
2022-08-26T04:56:13.708Z,19.43
2022-08-26T04:58:41.052Z,19.38
2022-08-26T05:01:08.303Z,19.38
2022-08-26T05:03:35.355Z,19.48
2022-08-26T05:06:04.453Z,19.53
2022-08-26T05:08:30.772Z,19.67
2022-08-26T05:10:57.078Z,19.63
2022-08-26T05:13:25.039Z,19.62
2022-08-26T05:15:51.839Z,19.70
2022-08-26T05:18:21.175Z,19.85
2022-08-26T05:20:50.195Z,19.82
2022-08-26T05:23:16.559Z,19.81
2022-08-26T05:25:43.865Z,19.84
2022-08-26T05:28:11.492Z,19.95
2022-08-26T05:30:40.282Z,20.05
2022-08-26T05:33:07.513Z,20.12
2022-08-26T05:35:34.679Z,20.19
2022-08-26T05:38:01.785Z,20.29
2022-08-26T05:40:28.825Z,20.38
2022-08-26T05:42:55.302Z,20.56
2022-08-26T05:45:24.178Z,20.61
2022-08-26T05:47:51.096Z,20.64
2022-08-26T05:50:21.747Z,20.79
2022-08-26T05:52:49.766Z,20.90
2022-08-26T05:55:16.483Z,21.08
2022-08-26T05:57:45.175Z,21.25
2022-08-26T06:00:12.616Z,21.43
2022-08-26T06:02:39.549Z,21.64
2022-08-26T06:05:07.623Z,21.86
2022-08-26T06:07:52.525Z,22.05
2022-08-26T06:10:31.969Z,22.29
2022-08-26T06:13:02.238Z,22.49
2022-08-26T06:15:31.148Z,22.55
2022-08-26T06:17:57.959Z,22.87
2022-08-26T06:20:24.274Z,23.11
2022-08-26T06:23:11.113Z,23.35
2022-08-26T06:25:38.408Z,23.86
2022-08-26T06:28:05.375Z,23.99
2022-08-26T06:30:32.237Z,24.25
2022-08-26T06:32:59.179Z,24.31
2022-08-26T06:35:26.608Z,24.66
2022-08-26T06:37:52.930Z,24.75
2022-08-26T06:40:20.926Z,25.15
2022-08-26T06:42:47.298Z,25.53
2022-08-26T06:45:13.879Z,25.74
2022-08-26T06:47:40.221Z,25.72
2022-08-26T06:50:06.850Z,25.82
2022-08-26T06:52:33.155Z,26.02
2022-08-26T06:55:01.066Z,26.24
2022-08-26T06:57:28.572Z,26.27
2022-08-26T06:59:58.025Z,26.33
2022-08-26T07:02:24.362Z,26.34
2022-08-26T07:04:54.859Z,26.35
2022-08-26T07:07:23.324Z,26.49
2022-08-26T07:09:52.528Z,26.63
2022-08-26T07:12:19.184Z,26.48
2022-08-26T07:14:47.495Z,27.04
2022-08-26T07:17:14.872Z,27.02
2022-08-26T07:19:41.550Z,27.07
2022-08-26T07:22:08.582Z,27.02
2022-08-26T07:24:37.161Z,27.03
2022-08-26T07:27:05.594Z,27.37
2022-08-26T07:29:32.472Z,27.20
2022-08-26T07:31:58.790Z,27.50
2022-08-26T07:34:26.472Z,27.69
2022-08-26T07:36:53.024Z,27.67
2022-08-26T07:39:19.814Z,27.91
2022-08-26T07:41:47.326Z,27.76
2022-08-26T07:44:14.185Z,27.83
2022-08-26T07:49:08.319Z,28.08
2022-08-26T07:51:35.463Z,28.01
2022-08-26T07:54:03.572Z,28.27
2022-08-26T07:56:29.883Z,28.45
2022-08-26T07:58:56.224Z,28.07
2022-08-26T08:01:24.414Z,28.12
2022-08-26T08:03:53.785Z,28.19
2022-08-26T08:06:21.008Z,28.15
2022-08-26T08:08:48.263Z,28.32
2022-08-26T08:11:17.869Z,29.06
2022-08-26T08:13:44.212Z,28.85
2022-08-26T08:16:12.697Z,29.05
2022-08-26T08:18:40.256Z,29.17
2022-08-26T08:21:21.151Z,28.93
2022-08-26T08:23:50.206Z,28.86
2022-08-26T08:26:16.888Z,29.06
2022-08-26T08:28:43.526Z,28.92
2022-08-26T08:31:21.643Z,28.67
2022-08-26T08:33:59.757Z,29.23
2022-08-26T08:36:26.076Z,28.89
2022-08-26T08:39:02.470Z,29.42
2022-08-26T08:41:45.599Z,29.10
2022-08-26T08:44:20.109Z,29.24
2022-08-26T08:46:49.992Z,29.49
2022-08-26T08:49:16.829Z,29.52
2022-08-26T08:51:48.082Z,29.80
2022-08-26T08:54:14.539Z,29.21
2022-08-26T08:56:40.885Z,29.19
2022-08-26T08:59:16.177Z,29.39
2022-08-26T09:01:47.412Z,29.81
2022-08-26T09:04:30.689Z,29.69
2022-08-26T09:06:59.181Z,29.55
2022-08-26T09:09:37.827Z,29.19
2022-08-26T09:12:07.223Z,29.06
2022-08-26T09:14:35.641Z,28.71
2022-08-26T09:17:12.166Z,28.43
2022-08-26T09:19:46.664Z,28.19
2022-08-26T09:22:27.564Z,28.46
2022-08-26T09:24:53.925Z,28.68
2022-08-26T09:27:37.665Z,28.38
2022-08-26T09:30:07.022Z,28.44
2022-08-26T09:32:35.125Z,28.59
2022-08-26T09:35:04.932Z,28.06
2022-08-26T09:37:34.068Z,28.00
2022-08-26T09:40:12.849Z,28.00
2022-08-26T09:42:39.531Z,28.23
2022-08-26T09:45:10.340Z,28.73
2022-08-26T09:47:45.898Z,28.97
2022-08-26T09:50:29.975Z,28.72
2022-08-26T09:53:09.484Z,28.89
2022-08-26T09:55:37.241Z,28.60
2022-08-26T09:58:04.190Z,28.42
2022-08-26T10:00:38.512Z,28.33
2022-08-26T10:03:12.628Z,28.23
2022-08-26T10:05:45.682Z,28.44
2022-08-26T10:08:23.089Z,28.44
2022-08-26T10:10:53.062Z,28.49
2022-08-26T10:13:42.275Z,28.72
2022-08-26T10:16:23.042Z,28.26
2022-08-26T10:18:53.114Z,27.78
2022-08-26T10:21:28.484Z,27.45
2022-08-26T10:23:56.294Z,27.26
2022-08-26T10:26:28.004Z,26.94
2022-08-26T10:28:56.789Z,26.69
2022-08-26T10:31:28.910Z,26.22
2022-08-26T10:33:58.847Z,26.01
2022-08-26T10:37:10.652Z,25.99
2022-08-26T10:39:49.552Z,25.81
2022-08-26T10:42:26.504Z,25.78
2022-08-26T10:44:58.763Z,25.67
2022-08-26T10:47:33.278Z,25.62
2022-08-26T10:50:03.070Z,25.34
2022-08-26T10:52:50.170Z,25.16
2022-08-26T10:55:19.821Z,24.64
2022-08-26T10:58:04.962Z,24.02
2022-08-26T11:01:02.236Z,23.56
2022-08-26T11:03:57.912Z,22.22
2022-08-26T11:06:25.845Z,22.00
2022-08-26T11:08:53.664Z,21.85
2022-08-26T11:11:38.848Z,21.47
2022-08-26T11:14:06.479Z,20.53
2022-08-26T11:16:42.818Z,20.52
2022-08-26T11:19:11.059Z,20.51
2022-08-26T11:21:51.989Z,20.42
2022-08-26T11:24:37.233Z,20.34
2022-08-26T11:27:03.926Z,20.43
2022-08-26T11:29:49.088Z,20.59
2022-08-26T11:32:33.777Z,20.82
2022-08-26T11:35:02.479Z,20.86
2022-08-26T11:37:32.221Z,20.87
2022-08-26T11:40:00.857Z,21.06
2022-08-26T11:42:29.368Z,21.20
2022-08-26T11:44:58.029Z,21.18
2022-08-26T11:47:29.781Z,21.61
2022-08-26T11:50:10.086Z,21.46
2022-08-26T11:52:36.710Z,21.51
2022-08-26T11:55:08.851Z,22.01
2022-08-26T11:57:40.757Z,22.35
2022-08-26T12:00:12.502Z,23.14
2022-08-26T12:02:40.821Z,23.55
2022-08-26T12:05:08.015Z,23.73
2022-08-26T12:07:35.606Z,24.07
2022-08-26T12:10:03.713Z,24.35
2022-08-26T12:12:34.967Z,24.44
2022-08-26T12:15:16.929Z,24.68
2022-08-26T12:17:44.476Z,24.98
2022-08-26T12:20:20.136Z,25.09
2022-08-26T12:22:48.109Z,25.08
2022-08-26T12:25:22.016Z,24.83
2022-08-26T12:27:53.067Z,24.86
2022-08-26T12:30:23.884Z,25.12
2022-08-26T12:32:57.876Z,25.23
2022-08-26T12:35:25.425Z,25.40
2022-08-26T12:37:53.228Z,25.50
2022-08-26T12:40:34.303Z,25.48
2022-08-26T12:43:02.035Z,25.25
2022-08-26T12:45:33.123Z,25.15
2022-08-26T12:48:01.372Z,24.99
2022-08-26T12:50:30.052Z,25.01
2022-08-26T12:52:58.240Z,25.13
2022-08-26T12:55:28.552Z,25.16
2022-08-26T12:58:11.781Z,25.17
2022-08-26T13:00:40.621Z,25.26
2022-08-26T13:03:25.787Z,25.21
2022-08-26T13:05:52.129Z,25.23
2022-08-26T13:08:28.062Z,25.32
2022-08-26T13:11:03.357Z,25.51
2022-08-26T13:13:29.787Z,25.49
2022-08-26T13:15:56.255Z,25.72
2022-08-26T13:18:22.587Z,25.75
2022-08-26T13:20:48.902Z,25.82
2022-08-26T13:23:15.631Z,25.82
2022-08-26T13:25:42.197Z,25.83
2022-08-26T13:28:09.959Z,25.93
2022-08-26T13:30:36.315Z,25.94
2022-08-26T13:33:03.376Z,26.03
2022-08-26T13:35:30.373Z,26.13
2022-08-26T13:37:57.448Z,26.19
2022-08-26T13:40:25.612Z,26.41
2022-08-26T13:42:52.145Z,26.61
2022-08-26T13:45:18.603Z,26.61
2022-08-26T13:47:45.018Z,26.95
2022-08-26T13:50:11.373Z,26.88
2022-08-26T13:52:37.767Z,27.06
2022-08-26T13:55:04.370Z,27.23
2022-08-26T13:57:31.133Z,27.48
2022-08-26T13:59:59.351Z,27.44
2022-08-26T14:02:26.856Z,27.47
2022-08-26T14:04:54.792Z,27.76
2022-08-26T14:07:21.400Z,27.75
2022-08-26T14:09:47.761Z,27.76
2022-08-26T14:12:14.316Z,27.63
2022-08-26T14:14:40.743Z,27.51
2022-08-26T14:17:07.215Z,27.59
2022-08-26T14:19:33.707Z,27.63
2022-08-26T14:22:00.896Z,27.27
2022-08-26T14:24:28.097Z,26.23
2022-08-26T14:26:54.479Z,25.55
2022-08-26T14:29:20.789Z,24.69
2022-08-26T14:31:47.196Z,24.01
2022-08-26T14:34:13.645Z,23.58
2022-08-26T14:36:39.996Z,23.62
2022-08-26T14:39:10.429Z,23.43
2022-08-26T14:41:45.193Z,23.04
2022-08-26T14:44:21.425Z,22.60
2022-08-26T14:46:49.620Z,21.58
2022-08-26T14:49:16.705Z,21.32
2022-08-26T14:51:43.034Z,21.15
2022-08-26T14:54:12.670Z,21.10
2022-08-26T14:56:48.797Z,21.12
2022-08-26T14:59:23.388Z,21.15
2022-08-26T15:01:49.881Z,21.06
2022-08-26T15:04:16.576Z,20.82
2022-08-26T15:06:42.889Z,20.72
2022-08-26T15:09:09.617Z,20.81
2022-08-26T15:11:36.006Z,20.83
2022-08-26T15:14:02.636Z,20.85
2022-08-26T15:16:29.113Z,20.82
2022-08-26T15:18:56.001Z,20.85
2022-08-26T15:21:22.873Z,20.86
2022-08-26T15:23:49.742Z,20.98
2022-08-26T15:26:16.635Z,21.07
2022-08-26T15:28:43.288Z,21.19
2022-08-26T15:31:09.838Z,21.25
2022-08-26T15:33:36.742Z,21.23
2022-08-26T15:36:03.886Z,21.11
2022-08-26T15:38:31.129Z,21.17
2022-08-26T15:41:02.810Z,21.20
2022-08-26T15:43:29.439Z,21.28
2022-08-26T15:45:55.795Z,21.32
2022-08-26T15:48:22.527Z,21.25
2022-08-26T15:51:07.440Z,21.21
2022-08-26T15:53:34.765Z,20.95
2022-08-26T15:56:01.318Z,20.92
2022-08-26T15:58:28.870Z,20.81
2022-08-26T16:00:55.747Z,20.72
2022-08-26T16:03:22.564Z,20.78
2022-08-26T16:05:48.953Z,20.83
2022-08-26T16:08:15.476Z,20.93
2022-08-26T16:10:46.584Z,20.89
2022-08-26T16:13:16.025Z,20.95
2022-08-26T16:15:42.558Z,20.92
2022-08-26T16:18:09.297Z,20.96
2022-08-26T16:20:36.635Z,20.95
2022-08-26T16:23:03.702Z,20.75
2022-08-26T16:25:30.603Z,20.58
2022-08-26T16:27:57.376Z,20.42
2022-08-26T16:30:25.545Z,20.33
2022-08-26T16:32:51.883Z,20.35
2022-08-26T16:35:18.305Z,20.35
2022-08-26T16:37:45.794Z,20.47
2022-08-26T16:40:12.347Z,20.50
2022-08-26T16:42:38.759Z,20.71
2022-08-26T16:45:05.535Z,20.67
2022-08-26T16:47:32.868Z,20.70
2022-08-26T16:49:59.505Z,20.52
2022-08-26T16:52:25.945Z,20.46
2022-08-26T16:54:58.127Z,20.60
2022-08-26T16:57:24.489Z,20.51
2022-08-26T16:59:51.009Z,20.66
2022-08-26T17:02:17.363Z,20.56
2022-08-26T17:04:47.115Z,20.67
2022-08-26T17:07:15.577Z,20.51
2022-08-26T17:09:43.055Z,20.64
2022-08-26T17:12:09.412Z,20.81
2022-08-26T17:14:35.774Z,20.73
2022-08-26T17:17:02.212Z,20.63
2022-08-26T17:19:29.121Z,20.62
2022-08-26T17:22:00.982Z,20.61
2022-08-26T17:24:33.128Z,20.58
2022-08-26T17:26:59.511Z,20.58
2022-08-26T17:29:25.831Z,20.67
2022-08-26T17:31:52.367Z,20.67
2022-08-26T17:34:18.730Z,20.62
2022-08-26T17:36:45.099Z,20.76
2022-08-26T17:39:11.515Z,20.72
2022-08-26T17:41:38.338Z,20.70
2022-08-26T17:44:05.011Z,20.71
2022-08-26T17:46:33.265Z,20.66
2022-08-26T17:49:02.275Z,20.66
2022-08-26T17:51:28.795Z,20.53
2022-08-26T17:53:55.141Z,20.61
2022-08-26T17:56:25.721Z,20.57
2022-08-26T17:58:53.803Z,20.60
2022-08-26T18:01:21.873Z,20.71
2022-08-26T18:03:48.508Z,20.52
2022-08-26T18:06:15.258Z,20.48
2022-08-26T18:08:41.945Z,20.60
2022-08-26T18:11:09.610Z,20.52
2022-08-26T18:13:36.110Z,20.53
2022-08-26T18:16:03.992Z,20.49
2022-08-26T18:18:32.740Z,20.51
2022-08-26T18:21:01.659Z,20.47
2022-08-26T18:23:28.702Z,20.46
2022-08-26T18:25:58.005Z,20.37
2022-08-26T18:28:24.409Z,20.48
2022-08-26T18:30:51.259Z,20.43
2022-08-26T18:33:19.460Z,20.67
2022-08-26T18:35:45.813Z,20.49
2022-08-26T18:38:14.200Z,20.41
2022-08-26T18:40:41.894Z,20.50
2022-08-26T18:43:08.507Z,20.41
2022-08-26T18:45:35.156Z,20.25
2022-08-26T18:48:02.474Z,20.12
2022-08-26T18:50:28.842Z,20.11
2022-08-26T18:52:55.257Z,20.17
2022-08-26T18:55:21.742Z,20.35
2022-08-26T18:57:48.176Z,20.42
2022-08-26T19:00:14.770Z,20.33
2022-08-26T19:02:41.635Z,20.30
2022-08-26T19:05:14.586Z,20.26
2022-08-26T19:07:40.940Z,20.18
2022-08-26T19:10:09.759Z,20.49
2022-08-26T19:12:36.339Z,20.21
2022-08-26T19:15:02.981Z,20.18
2022-08-26T19:17:29.358Z,20.17
2022-08-26T19:19:55.665Z,20.11
2022-08-26T19:22:22.279Z,20.02
2022-08-26T19:24:49.012Z,20.03
2022-08-26T19:27:15.509Z,20.03
2022-08-26T19:29:42.157Z,20.05
2022-08-26T19:32:08.730Z,20.07
2022-08-26T19:34:35.122Z,20.09
2022-08-26T19:37:02.602Z,20.11
2022-08-26T19:39:29.007Z,20.11
2022-08-26T19:41:55.384Z,20.12
2022-08-26T19:44:41.393Z,20.14
2022-08-26T19:47:09.348Z,20.14
2022-08-26T19:49:36.010Z,20.12
2022-08-26T19:52:03.077Z,20.11
2022-08-26T19:54:29.798Z,20.15
2022-08-26T19:56:56.229Z,20.19
2022-08-26T19:59:22.636Z,20.30
2022-08-26T20:02:00.603Z,20.14
2022-08-26T20:04:28.228Z,20.28
2022-08-26T20:06:57.612Z,20.15
2022-08-26T20:09:25.132Z,20.17
2022-08-26T20:11:51.519Z,20.19
2022-08-26T20:14:22.968Z,20.11
2022-08-26T20:16:49.939Z,20.09
2022-08-26T20:19:37.448Z,20.09
2022-08-26T20:22:04.407Z,20.00
2022-08-26T20:24:32.502Z,20.01
2022-08-26T20:27:02.291Z,20.06
2022-08-26T20:29:31.036Z,20.01
2022-08-26T20:31:57.668Z,19.93
2022-08-26T20:34:24.527Z,19.84
2022-08-26T20:36:51.898Z,19.92
2022-08-26T20:39:19.727Z,19.95
2022-08-26T20:41:46.686Z,19.84
2022-08-26T20:44:43.261Z,19.82
2022-08-26T20:54:19.165Z,19.81
2022-08-26T20:56:45.883Z,19.83
2022-08-26T20:59:12.556Z,19.79
2022-08-26T21:01:42.158Z,19.76
2022-08-26T21:04:11.068Z,19.80
2022-08-26T21:06:38.241Z,19.83
2022-08-26T21:09:06.034Z,19.68
2022-08-26T21:11:33.195Z,19.61
2022-08-26T21:14:17.100Z,19.48
2022-08-26T21:16:45.097Z,19.46
2022-08-26T21:19:13.601Z,19.32
2022-08-26T21:21:41.029Z,19.27
2022-08-26T21:24:07.673Z,19.21
2022-08-26T21:26:34.080Z,19.21
2022-08-26T21:29:01.065Z,19.19
2022-08-26T21:31:27.502Z,19.23
2022-08-26T21:33:54.050Z,19.27
2022-08-26T21:36:20.680Z,19.35
2022-08-26T21:38:47.045Z,19.33
2022-08-26T21:41:22.026Z,19.34
2022-08-26T21:43:49.732Z,19.39
2022-08-26T21:46:17.773Z,19.39
2022-08-26T21:48:49.911Z,19.41
2022-08-26T21:51:18.102Z,19.39
2022-08-26T21:53:44.521Z,19.37
2022-08-26T21:56:12.583Z,19.37
2022-08-26T21:58:38.945Z,19.33
2022-08-26T22:01:09.548Z,19.35
2022-08-26T22:03:46.857Z,19.32
2022-08-26T22:06:15.297Z,19.26
2022-08-26T22:08:41.644Z,19.20
2022-08-26T22:11:09.521Z,19.17
2022-08-26T22:13:37.883Z,19.22
2022-08-26T22:16:05.315Z,19.22
2022-08-26T22:18:32.527Z,19.23
2022-08-26T22:21:01.242Z,19.31
2022-08-26T22:23:28.090Z,19.34
2022-08-26T22:25:54.856Z,19.34
2022-08-26T22:28:21.517Z,19.28
2022-08-26T22:30:48.642Z,19.29
2022-08-26T22:33:16.177Z,19.28
2022-08-26T22:35:44.112Z,19.29
2022-08-26T22:38:10.715Z,19.31
2022-08-26T22:40:38.021Z,19.32
2022-08-26T22:43:04.640Z,19.33
2022-08-26T22:45:31.772Z,19.33
2022-08-26T22:47:59.367Z,19.35
2022-08-26T22:50:26.180Z,19.31
2022-08-26T22:52:52.512Z,19.35
2022-08-26T22:55:18.879Z,19.42
2022-08-26T22:57:45.237Z,19.51
2022-08-26T23:00:13.828Z,19.53
2022-08-26T23:02:40.543Z,19.48
2022-08-26T23:05:07.547Z,19.47
2022-08-26T23:07:34.321Z,19.42
2022-08-26T23:10:01.239Z,19.46
2022-08-26T23:12:27.873Z,19.43
2022-08-26T23:14:54.317Z,19.38
2022-08-26T23:17:21.457Z,19.22
2022-08-26T23:19:48.623Z,19.20
2022-08-26T23:22:17.064Z,19.17
2022-08-26T23:24:43.837Z,19.17
2022-08-26T23:27:10.210Z,19.10
2022-08-26T23:29:36.674Z,19.16
2022-08-26T23:32:03.992Z,19.17
2022-08-26T23:34:48.897Z,19.27
2022-08-26T23:37:15.625Z,19.23
2022-08-26T23:39:41.996Z,19.19
2022-08-26T23:42:08.565Z,19.22
2022-08-26T23:44:35.011Z,19.22
2022-08-26T23:47:01.699Z,19.20
2022-08-26T23:49:28.682Z,19.24
2022-08-26T23:52:13.463Z,19.26
2022-08-26T23:54:40.274Z,19.27
2022-08-26T23:57:07.175Z,19.21
2022-08-26T23:59:33.980Z,19.20
